sensor_id;sensor_type;location;lat;lon;timestamp;pressure;altitude;pressure_sealevel;temperature;humidity
60214;BME280;46080;46.904;19.688;2022-10-20T00:00:00;100985.00;;;9.45;77.45
60214;BME280;46080;46.904;19.688;2022-10-20T00:02:25;100987.22;;;9.40;77.43
60214;BME280;46080;46.904;19.688;2022-10-20T00:04:51;100989.06;;;9.40;77.26
60214;BME280;46080;46.904;19.688;2022-10-20T00:07:17;100996.22;;;9.39;77.17
60214;BME280;46080;46.904;19.688;2022-10-20T00:09:42;100996.34;;;9.38;77.59
60214;BME280;46080;46.904;19.688;2022-10-20T00:12:08;100989.34;;;9.37;77.76
60214;BME280;46080;46.904;19.688;2022-10-20T00:14:34;100996.50;;;9.36;78.38
60214;BME280;46080;46.904;19.688;2022-10-20T00:17:00;101004.03;;;9.31;78.46
60214;BME280;46080;46.904;19.688;2022-10-20T00:19:26;100998.03;;;9.29;78.44
60214;BME280;46080;46.904;19.688;2022-10-20T00:21:52;101003.34;;;9.29;78.31
60214;BME280;46080;46.904;19.688;2022-10-20T00:24:18;101007.25;;;9.25;78.25
60214;BME280;46080;46.904;19.688;2022-10-20T00:26:46;101012.59;;;9.25;78.12
60214;BME280;46080;46.904;19.688;2022-10-20T00:29:12;101016.09;;;9.25;77.78
60214;BME280;46080;46.904;19.688;2022-10-20T00:31:38;101017.34;;;9.21;78.15
60214;BME280;46080;46.904;19.688;2022-10-20T00:34:04;101020.28;;;9.18;78.47
60214;BME280;46080;46.904;19.688;2022-10-20T00:36:30;101011.06;;;9.12;78.54
60214;BME280;46080;46.904;19.688;2022-10-20T00:39:00;101015.53;;;9.12;78.30
60214;BME280;46080;46.904;19.688;2022-10-20T00:41:27;101012.72;;;9.13;79.13
60214;BME280;46080;46.904;19.688;2022-10-20T00:43:58;101013.00;;;9.10;80.08
60214;BME280;46080;46.904;19.688;2022-10-20T00:46:37;101016.94;;;9.06;80.33
60214;BME280;46080;46.904;19.688;2022-10-20T00:49:36;101017.50;;;9.10;80.88
60214;BME280;46080;46.904;19.688;2022-10-20T00:52:02;101014.28;;;9.06;81.27
60214;BME280;46080;46.904;19.688;2022-10-20T00:54:28;101016.22;;;9.04;81.81
60214;BME280;46080;46.904;19.688;2022-10-20T00:56:55;101020.44;;;8.97;81.32
60214;BME280;46080;46.904;19.688;2022-10-20T00:59:25;101019.56;;;8.96;81.12
60214;BME280;46080;46.904;19.688;2022-10-20T01:01:52;101018.31;;;9.01;83.48
60214;BME280;46080;46.904;19.688;2022-10-20T01:04:19;101020.44;;;8.97;83.14
60214;BME280;46080;46.904;19.688;2022-10-20T01:06:44;101026.03;;;8.94;84.97
60214;BME280;46080;46.904;19.688;2022-10-20T01:09:10;101025.16;;;8.93;82.91
60214;BME280;46080;46.904;19.688;2022-10-20T01:14:40;101023.34;;;8.94;85.21
60214;BME280;46080;46.904;19.688;2022-10-20T01:22:40;101031.28;;;8.84;82.04
60214;BME280;46080;46.904;19.688;2022-10-20T01:28:03;101037.03;;;8.79;81.46
60214;BME280;46080;46.904;19.688;2022-10-20T01:30:32;101046.13;;;8.77;81.08
60214;BME280;46080;46.904;19.688;2022-10-20T01:41:00;101044.56;;;8.65;81.59
60214;BME280;46080;46.904;19.688;2022-10-20T01:43:31;101046.63;;;8.61;81.67
60214;BME280;46080;46.904;19.688;2022-10-20T01:45:59;101052.06;;;8.59;81.30
60214;BME280;46080;46.904;19.688;2022-10-20T01:48:31;101045.66;;;8.62;81.49
60214;BME280;46080;46.904;19.688;2022-10-20T01:50:59;101047.03;;;8.56;82.30
60214;BME280;46080;46.904;19.688;2022-10-20T01:53:25;101055.47;;;8.61;81.91
60214;BME280;46080;46.904;19.688;2022-10-20T01:55:52;101059.63;;;8.64;81.15
60214;BME280;46080;46.904;19.688;2022-10-20T02:03:58;101062.13;;;8.56;81.30
60214;BME280;46080;46.904;19.688;2022-10-20T02:06:41;101062.41;;;8.53;81.27
60214;BME280;46080;46.904;19.688;2022-10-20T02:09:33;101064.50;;;8.49;81.74
60214;BME280;46080;46.904;19.688;2022-10-20T02:12:04;101062.94;;;8.47;82.38
60214;BME280;46080;46.904;19.688;2022-10-20T02:14:32;101065.34;;;8.50;82.29
60214;BME280;46080;46.904;19.688;2022-10-20T02:17:03;101070.31;;;8.43;82.78
60214;BME280;46080;46.904;19.688;2022-10-20T02:19:33;101072.88;;;8.45;83.47
60214;BME280;46080;46.904;19.688;2022-10-20T02:22:00;101077.69;;;8.39;83.45
60214;BME280;46080;46.904;19.688;2022-10-20T02:24:30;101083.13;;;8.38;83.63
60214;BME280;46080;46.904;19.688;2022-10-20T02:27:00;101080.34;;;8.39;83.70
60214;BME280;46080;46.904;19.688;2022-10-20T02:29:30;101079.59;;;8.28;85.12
60214;BME280;46080;46.904;19.688;2022-10-20T02:31:59;101081.53;;;8.25;84.53
60214;BME280;46080;46.904;19.688;2022-10-20T02:34:25;101079.41;;;8.19;86.08
60214;BME280;46080;46.904;19.688;2022-10-20T02:36:55;101076.75;;;8.19;85.59
60214;BME280;46080;46.904;19.688;2022-10-20T02:39:21;101079.66;;;8.16;85.46
60214;BME280;46080;46.904;19.688;2022-10-20T02:41:46;101081.63;;;8.14;85.89
60214;BME280;46080;46.904;19.688;2022-10-20T02:44:12;101076.75;;;8.19;85.51
60214;BME280;46080;46.904;19.688;2022-10-20T02:46:37;101073.25;;;8.19;86.79
60214;BME280;46080;46.904;19.688;2022-10-20T02:49:03;101079.22;;;8.11;86.51
60214;BME280;46080;46.904;19.688;2022-10-20T02:51:29;101085.22;;;8.13;86.10
60214;BME280;46080;46.904;19.688;2022-10-20T02:53:54;101094.50;;;8.19;85.85
60214;BME280;46080;46.904;19.688;2022-10-20T02:56:20;101093.94;;;8.15;86.52
60214;BME280;46080;46.904;19.688;2022-10-20T02:58:47;101095.16;;;8.11;86.37
60214;BME280;46080;46.904;19.688;2022-10-20T03:01:13;101102.06;;;8.02;87.42
60214;BME280;46080;46.904;19.688;2022-10-20T03:03:38;101092.56;;;8.00;87.70
60214;BME280;46080;46.904;19.688;2022-10-20T03:06:12;101103.66;;;8.05;87.24
60214;BME280;46080;46.904;19.688;2022-10-20T03:08:39;101093.59;;;8.08;87.17
60214;BME280;46080;46.904;19.688;2022-10-20T03:11:07;101100.84;;;8.06;87.36
60214;BME280;46080;46.904;19.688;2022-10-20T03:13:33;101099.25;;;8.15;87.41
60214;BME280;46080;46.904;19.688;2022-10-20T03:16:00;101104.56;;;8.15;87.71
60214;BME280;46080;46.904;19.688;2022-10-20T03:18:26;101104.69;;;8.14;88.57
60214;BME280;46080;46.904;19.688;2022-10-20T03:20:52;101112.41;;;8.17;88.78
60214;BME280;46080;46.904;19.688;2022-10-20T03:23:19;101109.59;;;8.18;88.70
60214;BME280;46080;46.904;19.688;2022-10-20T03:25:45;101111.41;;;8.18;88.71
60214;BME280;46080;46.904;19.688;2022-10-20T03:28:10;101110.84;;;8.14;88.09
60214;BME280;46080;46.904;19.688;2022-10-20T03:30:36;101120.03;;;8.10;88.22
60214;BME280;46080;46.904;19.688;2022-10-20T03:33:02;101114.44;;;8.13;87.81
60214;BME280;46080;46.904;19.688;2022-10-20T03:35:28;101123.53;;;8.11;87.98
60214;BME280;46080;46.904;19.688;2022-10-20T03:37:53;101130.50;;;8.12;87.94
60214;BME280;46080;46.904;19.688;2022-10-20T03:40:19;101125.59;;;8.07;88.18
60214;BME280;46080;46.904;19.688;2022-10-20T03:42:45;101135.13;;;8.10;88.47
60214;BME280;46080;46.904;19.688;2022-10-20T03:45:10;101127.47;;;8.16;88.10
60214;BME280;46080;46.904;19.688;2022-10-20T03:47:36;101124.44;;;8.21;87.66
60214;BME280;46080;46.904;19.688;2022-10-20T03:50:02;101128.06;;;8.20;87.93
60214;BME280;46080;46.904;19.688;2022-10-20T03:52:28;101130.59;;;8.21;87.45
60214;BME280;46080;46.904;19.688;2022-10-20T03:54:54;101135.06;;;8.21;87.58
60214;BME280;46080;46.904;19.688;2022-10-20T03:57:20;101131.31;;;8.23;87.13
60214;BME280;46080;46.904;19.688;2022-10-20T03:59:46;101127.56;;;8.26;87.09
60214;BME280;46080;46.904;19.688;2022-10-20T04:04:53;101130.09;;;8.28;86.70
60214;BME280;46080;46.904;19.688;2022-10-20T04:07:19;101129.09;;;8.29;86.53
60214;BME280;46080;46.904;19.688;2022-10-20T04:09:44;101132.22;;;8.34;86.85
60214;BME280;46080;46.904;19.688;2022-10-20T04:12:10;101134.75;;;8.35;86.76
60214;BME280;46080;46.904;19.688;2022-10-20T04:14:36;101127.75;;;8.34;86.25
60214;BME280;46080;46.904;19.688;2022-10-20T04:17:02;101128.56;;;8.35;86.49
60214;BME280;46080;46.904;19.688;2022-10-20T04:19:28;101125.91;;;8.35;86.31
60214;BME280;46080;46.904;19.688;2022-10-20T04:21:53;101135.56;;;8.36;86.05
60214;BME280;46080;46.904;19.688;2022-10-20T04:24:19;101130.09;;;8.28;86.43
60214;BME280;46080;46.904;19.688;2022-10-20T04:26:47;101129.22;;;8.27;86.94
60214;BME280;46080;46.904;19.688;2022-10-20T04:29:13;101132.13;;;8.24;87.02
60214;BME280;46080;46.904;19.688;2022-10-20T04:31:39;101130.34;;;8.24;87.61
60214;BME280;46080;46.904;19.688;2022-10-20T04:34:04;101132.28;;;8.22;87.37
60214;BME280;46080;46.904;19.688;2022-10-20T04:36:30;101133.00;;;8.24;87.92
60214;BME280;46080;46.904;19.688;2022-10-20T04:38:55;101128.06;;;8.20;87.41
60214;BME280;46080;46.904;19.688;2022-10-20T04:41:21;101133.78;;;8.15;87.55
60214;BME280;46080;46.904;19.688;2022-10-20T04:43:51;101132.09;;;8.14;88.18
60214;BME280;46080;46.904;19.688;2022-10-20T04:46:17;101129.94;;;8.08;88.20
60214;BME280;46080;46.904;19.688;2022-10-20T04:48:43;101125.16;;;8.02;88.92
60214;BME280;46080;46.904;19.688;2022-10-20T04:51:12;101125.03;;;8.03;89.08
60214;BME280;46080;46.904;19.688;2022-10-20T04:53:38;101123.66;;;8.09;89.01
60214;BME280;46080;46.904;19.688;2022-10-20T04:56:05;101122.69;;;8.10;89.11
60214;BME280;46080;46.904;19.688;2022-10-20T04:58:32;101122.75;;;7.99;89.17
60214;BME280;46080;46.904;19.688;2022-10-20T05:01:03;101123.84;;;7.96;89.54
60214;BME280;46080;46.904;19.688;2022-10-20T05:03:29;101131.09;;;7.94;89.98
60214;BME280;46080;46.904;19.688;2022-10-20T05:06:07;101126.03;;;7.91;91.23
60214;BME280;46080;46.904;19.688;2022-10-20T05:08:33;101135.44;;;7.95;91.22
60214;BME280;46080;46.904;19.688;2022-10-20T05:11:00;101134.47;;;7.96;92.22
60214;BME280;46080;46.904;19.688;2022-10-20T05:13:25;101130.84;;;7.97;92.69
60214;BME280;46080;46.904;19.688;2022-10-20T05:15:52;101129.88;;;7.98;92.77
60214;BME280;46080;46.904;19.688;2022-10-20T05:18:18;101135.91;;;8.00;93.08
60214;BME280;46080;46.904;19.688;2022-10-20T05:20:43;101132.34;;;8.11;92.32
60214;BME280;46080;46.904;19.688;2022-10-20T05:23:09;101143.53;;;8.15;92.58
60214;BME280;46080;46.904;19.688;2022-10-20T05:25:36;101140.97;;;8.24;91.98
60214;BME280;46080;46.904;19.688;2022-10-20T05:28:04;101152.31;;;8.26;91.22
60214;BME280;46080;46.904;19.688;2022-10-20T05:30:30;101157.66;;;8.36;90.95
60214;BME280;46080;46.904;19.688;2022-10-20T05:32:56;101152.81;;;8.41;90.80
60214;BME280;46080;46.904;19.688;2022-10-20T05:35:22;101160.19;;;8.49;90.22
60214;BME280;46080;46.904;19.688;2022-10-20T05:37:47;101164.84;;;8.57;89.54
60214;BME280;46080;46.904;19.688;2022-10-20T05:40:13;101173.25;;;8.62;88.95
60214;BME280;46080;46.904;19.688;2022-10-20T05:42:39;101170.50;;;8.73;88.34
60214;BME280;46080;46.904;19.688;2022-10-20T05:45:05;101178.53;;;8.83;87.87
60214;BME280;46080;46.904;19.688;2022-10-20T05:47:32;101181.91;;;8.85;86.90
60214;BME280;46080;46.904;19.688;2022-10-20T05:49:57;101188.19;;;8.84;86.91
60214;BME280;46080;46.904;19.688;2022-10-20T05:52:23;101194.09;;;8.88;86.49
60214;BME280;46080;46.904;19.688;2022-10-20T05:54:49;101193.09;;;8.89;85.74
60214;BME280;46080;46.904;19.688;2022-10-20T05:57:15;101197.06;;;8.94;85.97
60214;BME280;46080;46.904;19.688;2022-10-20T05:59:40;101208.66;;;8.93;84.95
60214;BME280;46080;46.904;19.688;2022-10-20T06:02:08;101208.25;;;8.98;85.47
60214;BME280;46080;46.904;19.688;2022-10-20T06:04:35;101215.19;;;9.10;84.72
60214;BME280;46080;46.904;19.688;2022-10-20T06:07:00;101212.72;;;9.19;84.19
60214;BME280;46080;46.904;19.688;2022-10-20T06:09:26;101215.66;;;9.25;83.16
60214;BME280;46080;46.904;19.688;2022-10-20T06:11:52;101223.13;;;9.31;83.16
60214;BME280;46080;46.904;19.688;2022-10-20T06:14:18;101222.97;;;9.33;82.85
60214;BME280;46080;46.904;19.688;2022-10-20T06:16:51;101224.69;;;9.44;82.28
60214;BME280;46080;46.904;19.688;2022-10-20T06:19:17;101226.81;;;9.50;81.50
60214;BME280;46080;46.904;19.688;2022-10-20T06:21:44;101234.94;;;9.48;81.53
60214;BME280;46080;46.904;19.688;2022-10-20T06:24:10;101239.44;;;9.58;81.52
60214;BME280;46080;46.904;19.688;2022-10-20T06:26:37;101251.34;;;9.54;81.17
60214;BME280;46080;46.904;19.688;2022-10-20T06:29:08;101251.00;;;9.78;79.96
60214;BME280;46080;46.904;19.688;2022-10-20T06:31:40;101248.50;;;10.74;75.11
60214;BME280;46080;46.904;19.688;2022-10-20T06:34:09;101251.22;;;11.67;67.20
60214;BME280;46080;46.904;19.688;2022-10-20T06:36:36;101249.97;;;12.61;62.88
60214;BME280;46080;46.904;19.688;2022-10-20T06:39:03;101256.66;;;13.44;59.21
60214;BME280;46080;46.904;19.688;2022-10-20T06:41:30;101256.84;;;14.10;55.75
60214;BME280;46080;46.904;19.688;2022-10-20T06:43:56;101259.38;;;14.77;53.90
60214;BME280;46080;46.904;19.688;2022-10-20T06:46:27;101254.97;;;15.09;52.01
60214;BME280;46080;46.904;19.688;2022-10-20T06:48:53;101262.88;;;15.50;49.44
60214;BME280;46080;46.904;19.688;2022-10-20T06:51:19;101273.00;;;15.80;49.80
60214;BME280;46080;46.904;19.688;2022-10-20T06:53:50;101268.56;;;16.18;48.01
60214;BME280;46080;46.904;19.688;2022-10-20T06:56:21;101267.31;;;16.52;46.81
60214;BME280;46080;46.904;19.688;2022-10-20T06:58:51;101275.78;;;16.87;45.84
60214;BME280;46080;46.904;19.688;2022-10-20T07:01:25;101276.63;;;17.17;45.57
60214;BME280;46080;46.904;19.688;2022-10-20T07:03:53;101272.44;;;17.45;44.21
60214;BME280;46080;46.904;19.688;2022-10-20T07:06:22;101282.19;;;17.46;43.91
60214;BME280;46080;46.904;19.688;2022-10-20T07:08:48;101288.59;;;17.60;43.35
60214;BME280;46080;46.904;19.688;2022-10-20T07:11:17;101286.31;;;17.42;42.26
60214;BME280;46080;46.904;19.688;2022-10-20T07:13:44;101286.94;;;17.29;42.88
60214;BME280;46080;46.904;19.688;2022-10-20T07:16:13;101292.03;;;16.94;43.10
60214;BME280;46080;46.904;19.688;2022-10-20T07:18:39;101281.16;;;16.87;43.58
60214;BME280;46080;46.904;19.688;2022-10-20T07:21:07;101284.59;;;16.96;44.27
60214;BME280;46080;46.904;19.688;2022-10-20T07:23:34;101289.75;;;17.35;43.31
60214;BME280;46080;46.904;19.688;2022-10-20T07:28:30;101291.59;;;16.82;41.76
60214;BME280;46080;46.904;19.688;2022-10-20T07:30:56;101290.50;;;17.29;42.18
60214;BME280;46080;46.904;19.688;2022-10-20T07:33:22;101291.97;;;17.17;42.39
60214;BME280;46080;46.904;19.688;2022-10-20T07:35:48;101280.31;;;16.63;41.01
60214;BME280;46080;46.904;19.688;2022-10-20T07:38:14;101283.00;;;16.87;41.89
60214;BME280;46080;46.904;19.688;2022-10-20T07:40:40;101283.75;;;16.34;41.88
60214;BME280;46080;46.904;19.688;2022-10-20T07:43:06;101286.09;;;16.37;41.31
60214;BME280;46080;46.904;19.688;2022-10-20T07:45:32;101282.28;;;16.70;41.55
60214;BME280;46080;46.904;19.688;2022-10-20T07:47:57;101277.94;;;16.69;39.94
60214;BME280;46080;46.904;19.688;2022-10-20T07:50:24;101292.75;;;15.95;40.58
60214;BME280;46080;46.904;19.688;2022-10-20T07:52:51;101285.06;;;16.15;40.30
60214;BME280;46080;46.904;19.688;2022-10-20T07:55:17;101287.09;;;15.82;41.60
60214;BME280;46080;46.904;19.688;2022-10-20T07:57:43;101296.03;;;15.82;41.37
60214;BME280;46080;46.904;19.688;2022-10-20T08:00:09;101288.97;;;15.33;41.42
60214;BME280;46080;46.904;19.688;2022-10-20T08:02:37;101290.00;;;15.72;41.99
60214;BME280;46080;46.904;19.688;2022-10-20T08:05:06;101292.06;;;15.62;42.04
60214;BME280;46080;46.904;19.688;2022-10-20T08:07:32;101294.06;;;15.68;41.78
60214;BME280;46080;46.904;19.688;2022-10-20T08:09:58;101304.09;;;15.82;42.20
60214;BME280;46080;46.904;19.688;2022-10-20T08:12:24;101314.28;;;15.55;41.44
60214;BME280;46080;46.904;19.688;2022-10-20T08:14:50;101308.63;;;15.34;42.80
60214;BME280;46080;46.904;19.688;2022-10-20T08:17:17;101298.66;;;15.51;42.92
60214;BME280;46080;46.904;19.688;2022-10-20T08:19:43;101305.72;;;15.44;42.92
60214;BME280;46080;46.904;19.688;2022-10-20T08:22:09;101297.72;;;15.27;43.26
60214;BME280;46080;46.904;19.688;2022-10-20T08:24:35;101302.84;;;14.89;43.88
60214;BME280;46080;46.904;19.688;2022-10-20T08:27:01;101325.81;;;14.67;44.40
60214;BME280;46080;46.904;19.688;2022-10-20T08:29:26;101322.75;;;14.37;45.70
60214;BME280;46080;46.904;19.688;2022-10-20T08:31:53;101314.25;;;14.66;45.33
60214;BME280;46080;46.904;19.688;2022-10-20T08:34:19;101311.69;;;14.40;45.80
60214;BME280;46080;46.904;19.688;2022-10-20T08:36:44;101302.47;;;14.34;45.76
60214;BME280;46080;46.904;19.688;2022-10-20T08:39:10;101301.44;;;14.35;45.91
60214;BME280;46080;46.904;19.688;2022-10-20T08:41:39;101304.47;;;14.24;45.81
60214;BME280;46080;46.904;19.688;2022-10-20T08:44:06;101304.28;;;14.18;46.05
60214;BME280;46080;46.904;19.688;2022-10-20T08:46:35;101298.22;;;14.07;46.21
60214;BME280;46080;46.904;19.688;2022-10-20T08:49:03;101301.78;;;14.32;46.27
60214;BME280;46080;46.904;19.688;2022-10-20T08:51:33;101313.50;;;14.23;46.22
60214;BME280;46080;46.904;19.688;2022-10-20T08:54:02;101311.25;;;13.94;46.37
60214;BME280;46080;46.904;19.688;2022-10-20T08:56:30;101314.94;;;13.50;47.77
60214;BME280;46080;46.904;19.688;2022-10-20T08:58:58;101308.78;;;13.32;48.27
60214;BME280;46080;46.904;19.688;2022-10-20T09:01:37;101305.75;;;13.53;47.69
60214;BME280;46080;46.904;19.688;2022-10-20T09:04:13;101317.97;;;13.55;47.49
60214;BME280;46080;46.904;19.688;2022-10-20T09:06:42;101302.75;;;13.56;47.36
60214;BME280;46080;46.904;19.688;2022-10-20T09:09:14;101310.34;;;13.77;47.71
60214;BME280;46080;46.904;19.688;2022-10-20T09:11:41;101323.91;;;13.67;47.02
60214;BME280;46080;46.904;19.688;2022-10-20T09:14:08;101318.84;;;13.03;48.40
60214;BME280;46080;46.904;19.688;2022-10-20T09:16:34;101311.75;;;13.20;48.29
60214;BME280;46080;46.904;19.688;2022-10-20T09:19:05;101322.97;;;12.98;47.84
60214;BME280;46080;46.904;19.688;2022-10-20T09:21:32;101309.22;;;12.93;47.71
60214;BME280;46080;46.904;19.688;2022-10-20T09:24:02;101308.00;;;13.13;47.65
60214;BME280;46080;46.904;19.688;2022-10-20T09:26:42;101317.38;;;13.35;46.88
60214;BME280;46080;46.904;19.688;2022-10-20T09:29:15;101315.31;;;13.03;47.12
60214;BME280;46080;46.904;19.688;2022-10-20T09:31:52;101313.28;;;12.97;47.41
60214;BME280;46080;46.904;19.688;2022-10-20T09:34:22;101307.38;;;12.93;46.87
60214;BME280;46080;46.904;19.688;2022-10-20T09:36:49;101317.38;;;13.09;47.08
60214;BME280;46080;46.904;19.688;2022-10-20T09:39:20;101309.84;;;13.13;46.81
60214;BME280;46080;46.904;19.688;2022-10-20T09:41:48;101308.34;;;13.36;46.54
60214;BME280;46080;46.904;19.688;2022-10-20T09:44:17;101309.59;;;13.24;46.67
60214;BME280;46080;46.904;19.688;2022-10-20T09:46:51;101320.66;;;13.29;46.96
60214;BME280;46080;46.904;19.688;2022-10-20T09:49:39;101309.06;;;13.20;47.05
60214;BME280;46080;46.904;19.688;2022-10-20T09:52:16;101311.56;;;13.14;47.43
60214;BME280;46080;46.904;19.688;2022-10-20T09:54:46;101306.34;;;13.38;47.18
60214;BME280;46080;46.904;19.688;2022-10-20T09:57:17;101312.13;;;13.60;46.77
60214;BME280;46080;46.904;19.688;2022-10-20T09:59:47;101307.19;;;13.73;45.62
60214;BME280;46080;46.904;19.688;2022-10-20T10:04:46;101314.16;;;13.66;45.17
60214;BME280;46080;46.904;19.688;2022-10-20T10:07:30;101300.44;;;13.61;45.18
60214;BME280;46080;46.904;19.688;2022-10-20T10:10:10;101295.41;;;13.66;45.30
60214;BME280;46080;46.904;19.688;2022-10-20T10:12:54;101310.31;;;13.60;45.31
60214;BME280;46080;46.904;19.688;2022-10-20T10:15:29;101301.88;;;13.47;45.16
60214;BME280;46080;46.904;19.688;2022-10-20T10:17:57;101295.16;;;13.86;44.79
60214;BME280;46080;46.904;19.688;2022-10-20T10:25:39;101285.53;;;14.18;44.13
60214;BME280;46080;46.904;19.688;2022-10-20T10:30:44;101288.88;;;14.28;43.55
60214;BME280;46080;46.904;19.688;2022-10-20T10:33:27;101282.97;;;13.99;43.39
60214;BME280;46080;46.904;19.688;2022-10-20T10:35:53;101280.81;;;14.20;43.97
60214;BME280;46080;46.904;19.688;2022-10-20T10:38:20;101282.84;;;14.18;44.03
60214;BME280;46080;46.904;19.688;2022-10-20T10:46:41;101259.19;;;14.54;42.95
60214;BME280;46080;46.904;19.688;2022-10-20T10:49:44;101254.50;;;14.48;42.74
60214;BME280;46080;46.904;19.688;2022-10-20T10:55:33;101242.78;;;14.41;43.02
60214;BME280;46080;46.904;19.688;2022-10-20T11:04:11;101244.78;;;14.30;43.37
60214;BME280;46080;46.904;19.688;2022-10-20T11:15:38;101234.91;;;14.47;43.19
60214;BME280;46080;46.904;19.688;2022-10-20T11:21:19;101220.47;;;14.81;42.68
60214;BME280;46080;46.904;19.688;2022-10-20T11:24:20;101226.31;;;14.85;42.64
60214;BME280;46080;46.904;19.688;2022-10-20T11:26:56;101222.28;;;14.56;43.15
60214;BME280;46080;46.904;19.688;2022-10-20T11:29:35;101214.44;;;14.71;43.22
60214;BME280;46080;46.904;19.688;2022-10-20T11:34:39;101204.97;;;15.00;42.36
60214;BME280;46080;46.904;19.688;2022-10-20T11:37:25;101197.41;;;15.03;43.03
60214;BME280;46080;46.904;19.688;2022-10-20T11:45:00;101182.63;;;14.99;42.58
60214;BME280;46080;46.904;19.688;2022-10-20T11:47:35;101181.69;;;14.84;42.85
60214;BME280;46080;46.904;19.688;2022-10-20T11:50:09;101185.50;;;14.98;42.53
60214;BME280;46080;46.904;19.688;2022-10-20T11:52:42;101173.03;;;15.13;42.20
60214;BME280;46080;46.904;19.688;2022-10-20T12:00:58;101166.50;;;15.08;41.83
60214;BME280;46080;46.904;19.688;2022-10-20T12:06:48;101169.63;;;14.80;42.85
60214;BME280;46080;46.904;19.688;2022-10-20T12:14:39;101153.50;;;15.28;41.80
60214;BME280;46080;46.904;19.688;2022-10-20T12:19:40;101150.06;;;15.42;41.67
60214;BME280;46080;46.904;19.688;2022-10-20T12:27:23;101150.75;;;15.36;41.92
60214;BME280;46080;46.904;19.688;2022-10-20T12:29:51;101146.75;;;15.32;41.81
60214;BME280;46080;46.904;19.688;2022-10-20T12:32:55;101139.19;;;15.35;41.78
60214;BME280;46080;46.904;19.688;2022-10-20T12:37:59;101145.88;;;15.39;41.46
60214;BME280;46080;46.904;19.688;2022-10-20T12:40:33;101133.72;;;15.20;41.96
60214;BME280;46080;46.904;19.688;2022-10-20T12:43:05;101135.75;;;15.18;42.20
60214;BME280;46080;46.904;19.688;2022-10-20T12:45:39;101139.63;;;15.16;42.42
60214;BME280;46080;46.904;19.688;2022-10-20T12:48:08;101132.88;;;15.20;42.21
60214;BME280;46080;46.904;19.688;2022-10-20T12:50:44;101135.03;;;15.24;42.00
60214;BME280;46080;46.904;19.688;2022-10-20T12:56:06;101128.47;;;15.27;41.57
60214;BME280;46080;46.904;19.688;2022-10-20T12:58:34;101130.63;;;15.32;42.14
60214;BME280;46080;46.904;19.688;2022-10-20T13:01:08;101126.41;;;15.37;41.88
60214;BME280;46080;46.904;19.688;2022-10-20T13:16:45;101121.06;;;14.98;42.25
60214;BME280;46080;46.904;19.688;2022-10-20T13:19:17;101123.56;;;14.99;42.41
60214;BME280;46080;46.904;19.688;2022-10-20T13:21:44;101120.28;;;14.89;42.96
60214;BME280;46080;46.904;19.688;2022-10-20T13:24:14;101119.94;;;14.84;42.91
60214;BME280;46080;46.904;19.688;2022-10-20T13:27:07;101111.75;;;14.77;43.22
60214;BME280;46080;46.904;19.688;2022-10-20T13:29:39;101111.41;;;14.80;42.94
60214;BME280;46080;46.904;19.688;2022-10-20T13:35:28;101099.63;;;14.90;42.75
60214;BME280;46080;46.904;19.688;2022-10-20T13:38:19;101101.31;;;14.91;42.50
60214;BME280;46080;46.904;19.688;2022-10-20T13:41:14;101102.13;;;14.91;42.68
60214;BME280;46080;46.904;19.688;2022-10-20T13:44:15;101101.31;;;14.91;42.46
60214;BME280;46080;46.904;19.688;2022-10-20T13:46:51;101098.09;;;14.95;42.52
60214;BME280;46080;46.904;19.688;2022-10-20T13:49:46;101104.50;;;14.86;42.50
60214;BME280;46080;46.904;19.688;2022-10-20T13:52:14;101099.97;;;14.86;42.35
60214;BME280;46080;46.904;19.688;2022-10-20T13:54:46;101094.19;;;14.98;42.65
60214;BME280;46080;46.904;19.688;2022-10-20T13:57:24;101098.91;;;14.96;42.60
60214;BME280;46080;46.904;19.688;2022-10-20T13:59:56;101106.97;;;14.96;42.40
60214;BME280;46080;46.904;19.688;2022-10-20T14:02:26;101105.81;;;14.90;42.36
60214;BME280;46080;46.904;19.688;2022-10-20T14:05:10;101098.47;;;14.84;42.60
60214;BME280;46080;46.904;19.688;2022-10-20T14:07:43;101095.44;;;14.87;42.32
60214;BME280;46080;46.904;19.688;2022-10-20T14:10:27;101100.19;;;14.77;42.33
60214;BME280;46080;46.904;19.688;2022-10-20T14:12:54;101096.34;;;14.71;42.43
60214;BME280;46080;46.904;19.688;2022-10-20T14:15:28;101093.50;;;14.64;42.46
60214;BME280;46080;46.904;19.688;2022-10-20T14:18:04;101086.66;;;14.53;42.48
60214;BME280;46080;46.904;19.688;2022-10-20T14:20:33;101084.97;;;14.52;42.56
60214;BME280;46080;46.904;19.688;2022-10-20T14:23:00;101079.75;;;14.51;42.65
60214;BME280;46080;46.904;19.688;2022-10-20T14:25:27;101075.91;;;14.53;42.52
60214;BME280;46080;46.904;19.688;2022-10-20T14:27:56;101080.25;;;14.55;42.96
60214;BME280;46080;46.904;19.688;2022-10-20T14:30:22;101084.97;;;14.52;42.88
60214;BME280;46080;46.904;19.688;2022-10-20T14:32:49;101081.09;;;14.55;43.20
60214;BME280;46080;46.904;19.688;2022-10-20T14:38:28;101072.56;;;14.43;42.97
60214;BME280;46080;46.904;19.688;2022-10-20T14:40:57;101066.72;;;14.40;43.05
60214;BME280;46080;46.904;19.688;2022-10-20T14:46:02;101069.59;;;14.38;43.78
60214;BME280;46080;46.904;19.688;2022-10-20T14:48:33;101069.59;;;14.38;43.97
60214;BME280;46080;46.904;19.688;2022-10-20T14:51:03;101068.25;;;14.34;43.92
60214;BME280;46080;46.904;19.688;2022-10-20T14:53:47;101063.06;;;14.24;44.05
60214;BME280;46080;46.904;19.688;2022-10-20T14:56:22;101066.28;;;14.20;44.39
60214;BME280;46080;46.904;19.688;2022-10-20T14:58:59;101060.59;;;14.14;44.31
60214;BME280;46080;46.904;19.688;2022-10-20T15:01:28;101062.41;;;14.14;44.48